Time;durP1;ratioP1;P1;durP2;ratioP2;P2;SDS_P1;SDS_P2;PMS_P1;PMS_P2;Temp;Humidity;BMP_temperature;BMP_pressure;BME280_temperature;BME280_humidity;BME280_pressure;Samples;Min_cycle;Max_cycle;Signal;HPM_P1;HPM_P2
2022/01/18 00:00:04;;;;;;;9.25;3.83;;;25.70;95.00;;;;;;5072113;28;20029;-57
2022/01/18 00:02:31;;;;;;;9.65;3.83;;;25.70;95.00;;;;;;5072047;28;20021;-57
2022/01/18 00:04:59;;;;;;;12.23;4.45;;;25.70;95.00;;;;;;5073460;28;20028;-60
2022/01/18 00:07:26;;;;;;;7.25;3.42;;;25.60;95.00;;;;;;5072210;28;20024;-51
2022/01/18 00:09:54;;;;;;;10.02;3.45;;;25.60;95.00;;;;;;5071801;28;20036;-53
2022/01/18 00:12:55;;;;;;;9.35;3.72;;;25.60;95.10;;;;;;5071935;28;20032;-53
2022/01/18 00:18:06;;;;;;;11.73;4.70;;;25.60;95.10;;;;;;5073059;28;20394;-53
2022/01/18 00:20:49;;;;;;;6.53;3.13;;;25.60;95.20;;;;;;5072651;28;20066;-59
2022/01/18 00:23:17;;;;;;;9.63;3.88;;;25.50;95.20;;;;;;5071718;28;20082;-55
2022/01/18 00:25:49;;;;;;;11.85;4.38;;;25.60;95.20;;;;;;5072699;28;20123;-54
2022/01/18 00:28:17;;;;;;;9.30;4.15;;;25.60;95.30;;;;;;5072678;28;20044;-58
2022/01/18 00:36:28;;;;;;;8.85;3.50;;;25.50;95.30;;;;;;5074066;28;20374;-60
2022/01/18 00:38:57;;;;;;;9.43;4.00;;;25.50;95.30;;;;;;5075360;28;20090;-57
2022/01/18 00:41:26;;;;;;;9.18;3.72;;;25.50;95.40;;;;;;5073114;28;20111;-62
2022/01/18 00:43:55;;;;;;;10.40;3.90;;;25.50;95.40;;;;;;5072900;28;20044;-60
2022/01/18 00:46:24;;;;;;;8.95;3.20;;;25.50;95.70;;;;;;5072534;28;20048;-59
2022/01/18 00:48:55;;;;;;;10.32;4.07;;;25.50;95.40;;;;;;5071216;28;20032;-60
2022/01/18 00:51:23;;;;;;;11.90;4.40;;;25.50;95.40;;;;;;5072698;28;20021;-55
2022/01/18 00:53:51;;;;;;;7.93;3.67;;;25.50;95.50;;;;;;5072490;28;20099;-56
2022/01/18 00:56:23;;;;;;;7.88;3.88;;;25.50;95.50;;;;;;5072455;28;20452;-58
2022/01/18 00:58:50;;;;;;;;;;;25.50;95.40;;;;;;5073301;28;20063;-56
2022/01/18 01:01:20;;;;;;;10.23;3.60;;;25.50;95.40;;;;;;5072289;28;19995;-56
2022/01/18 01:03:48;;;;;;;9.48;3.65;;;25.50;95.40;;;;;;5072833;28;20043;-63
2022/01/18 01:06:16;;;;;;;7.90;3.53;;;25.60;95.30;;;;;;5071870;28;20033;-56
2022/01/18 01:08:44;;;;;;;8.60;4.30;;;25.60;95.30;;;;;;5072019;28;20028;-61
2022/01/18 01:11:12;;;;;;;9.73;3.92;;;25.60;95.20;;;;;;5053448;28;20035;-53
2022/01/18 01:13:45;;;;;;;9.40;3.90;;;25.60;95.10;;;;;;5072114;28;20145;-57
2022/01/18 01:46:33;;;;;;;7.93;3.50;;;25.90;94.80;;;;;;5070557;28;20507;-59
2022/01/18 01:49:02;;;;;;;;;;;25.90;94.70;;;;;;5072290;28;20356;-55
2022/01/18 01:51:31;;;;;;;6.70;2.70;;;25.80;94.70;;;;;;5071816;28;19958;-59
2022/01/18 01:54:05;;;;;;;10.05;3.88;;;25.90;94.70;;;;;;5071440;28;20024;-61
2022/01/18 01:56:33;;;;;;;11.00;3.55;;;25.90;94.60;;;;;;5071487;28;20064;-49
2022/01/18 01:59:01;;;;;;;7.28;3.25;;;25.90;94.60;;;;;;5071965;28;20040;-56
2022/01/18 02:01:29;;;;;;;6.03;3.03;;;25.90;94.50;;;;;;5069972;28;20115;-56
2022/01/18 02:03:57;;;;;;;12.55;3.85;;;25.90;94.50;;;;;;5070818;28;20417;-58
2022/01/18 02:06:25;;;;;;;11.73;3.60;;;25.90;94.40;;;;;;5071729;28;20410;-53
2022/01/18 02:08:52;;;;;;;6.57;2.78;;;25.90;94.50;;;;;;5071080;28;20028;-57
2022/01/18 02:11:20;;;;;;;6.07;3.15;;;25.90;94.50;;;;;;5071468;28;20024;-61
2022/01/18 02:13:50;;;;;;;7.80;2.92;;;25.90;94.50;;;;;;5071456;28;20328;-60
2022/01/18 02:21:52;;;;;;;7.40;3.13;;;25.90;94.60;;;;;;5072846;28;20036;-52
2022/01/18 02:24:22;;;;;;;7.95;3.28;;;25.90;94.60;;;;;;5073917;28;20044;-56
2022/01/18 02:26:49;;;;;;;5.65;2.65;;;25.90;94.60;;;;;;5075332;28;20082;-57
2022/01/18 02:29:17;;;;;;;7.03;3.20;;;25.90;94.60;;;;;;5075443;28;20020;-59
2022/01/18 02:31:46;;;;;;;5.35;3.15;;;25.90;94.60;;;;;;5074946;28;20112;-56
2022/01/18 02:34:17;;;;;;;8.60;3.47;;;25.90;94.60;;;;;;5074905;28;20028;-57
2022/01/18 02:36:45;;;;;;;6.38;2.85;;;25.90;94.60;;;;;;5074095;28;20182;-57
2022/01/18 02:39:14;;;;;;;9.52;3.72;;;25.90;94.60;;;;;;5075427;28;20032;-54
2022/01/18 02:41:41;;;;;;;7.63;3.05;;;25.90;94.70;;;;;;5075140;28;20025;-50
2022/01/18 02:44:12;;;;;;;9.32;3.28;;;25.90;94.70;;;;;;5074859;28;20464;-53
2022/01/18 02:46:42;;;;;;;10.10;3.58;;;25.90;94.70;;;;;;5075502;28;20482;-58
2022/01/18 02:49:09;;;;;;;10.30;3.15;;;25.90;94.80;;;;;;5074982;28;20036;-56
2022/01/18 02:51:37;;;;;;;5.97;2.80;;;25.90;94.80;;;;;;5075390;28;20024;-59
2022/01/18 02:54:14;;;;;;;8.05;3.33;;;25.90;94.70;;;;;;5074296;28;20044;-50
2022/01/18 02:56:57;;;;;;;7.78;3.08;;;25.80;94.80;;;;;;5074713;28;20052;-59
2022/01/18 02:59:46;;;;;;;6.78;3.20;;;25.80;94.80;;;;;;5074990;28;20040;-51
2022/01/18 03:05:12;;;;;;;6.93;3.38;;;25.80;94.90;;;;;;5075188;28;20082;-54
2022/01/18 03:07:41;;;;;;;8.10;3.40;;;25.80;94.90;;;;;;5074299;28;20122;-60
2022/01/18 03:10:10;;;;;;;5.30;2.42;;;25.80;94.90;;;;;;5074430;28;20403;-62
2022/01/18 03:12:38;;;;;;;6.07;2.85;;;25.80;95.00;;;;;;5074295;28;20478;-57
2022/01/18 03:15:06;;;;;;;5.97;2.75;;;25.70;94.90;;;;;;5074043;28;20112;-51
2022/01/18 03:17:34;;;;;;;5.68;3.00;;;25.80;94.90;;;;;;5074278;28;20032;-55
2022/01/18 03:20:06;;;;;;;5.78;2.95;;;25.70;94.90;;;;;;5073935;28;20036;-58
2022/01/18 03:22:34;;;;;;;6.18;2.90;;;25.70;94.90;;;;;;5074065;28;20107;-61
2022/01/18 03:25:14;;;;;;;4.88;2.75;;;25.70;94.90;;;;;;5072793;28;20044;-50
2022/01/18 03:30:27;;;;;;;5.57;3.22;;;25.70;95.10;;;;;;5075255;28;20383;-58
2022/01/18 03:32:54;;;;;;;4.15;2.83;;;25.70;95.10;;;;;;5073846;28;20174;-58
2022/01/18 03:35:23;;;;;;;8.05;3.33;;;25.60;95.10;;;;;;5074281;28;20082;-58
2022/01/18 03:37:51;;;;;;;8.73;2.78;;;25.70;95.20;;;;;;5073848;28;20325;-52
2022/01/18 03:40:19;;;;;;;6.25;3.17;;;25.70;95.20;;;;;;5074028;28;20498;-59
2022/01/18 03:42:48;;;;;;;5.65;2.63;;;25.70;95.20;;;;;;5073370;28;20035;-51
2022/01/18 03:45:21;;;;;;;6.38;3.03;;;25.70;95.20;;;;;;5073462;28;20032;-56
2022/01/18 03:47:48;;;;;;;5.38;2.58;;;25.70;95.10;;;;;;5072708;28;20053;-53
2022/01/18 03:50:17;;;;;;;5.95;2.35;;;25.70;95.00;;;;;;5074092;28;20028;-55
2022/01/18 03:52:46;;;;;;;4.85;3.25;;;25.70;95.00;;;;;;5074439;28;20349;-56
2022/01/18 03:55:16;;;;;;;5.70;2.80;;;25.70;95.10;;;;;;5073879;28;20061;-61
2022/01/18 03:57:43;;;;;;;4.93;2.40;;;25.70;95.10;;;;;;5071967;28;20031;-53
2022/01/18 04:00:23;;;;;;;4.95;2.38;;;25.60;94.90;;;;;;5073344;28;20499;-57
2022/01/18 04:02:52;;;;;;;5.95;2.60;;;25.60;94.90;;;;;;5073272;28;20024;-52
2022/01/18 04:05:20;;;;;;;6.20;2.53;;;25.60;95.00;;;;;;5072405;28;20040;-52
2022/01/18 04:07:48;;;;;;;4.28;2.40;;;25.60;95.00;;;;;;5073499;28;20079;-53
2022/01/18 04:10:16;;;;;;;7.32;2.65;;;25.60;95.00;;;;;;5073174;28;20493;-54
2022/01/18 04:12:46;;;;;;;3.60;1.98;;;25.60;95.10;;;;;;5073646;28;20032;-54
2022/01/18 04:15:17;;;;;;;4.15;2.30;;;25.60;95.10;;;;;;5073674;28;20025;-61
2022/01/18 04:26:05;;;;;;;6.30;2.67;;;25.50;95.10;;;;;;5072148;28;20142;-56
2022/01/18 04:31:11;;;;;;;5.38;2.45;;;25.50;95.30;;;;;;5072514;28;20017;-54
2022/01/18 04:33:39;;;;;;;5.70;2.70;;;25.50;95.30;;;;;;5073192;28;20047;-57
2022/01/18 04:36:09;;;;;;;3.58;2.20;;;25.50;95.30;;;;;;5072901;28;20021;-56
2022/01/18 04:38:39;;;;;;;4.93;2.42;;;25.40;95.30;;;;;;5072432;28;20448;-56
2022/01/18 04:41:14;;;;;;;4.65;2.47;;;25.50;95.30;;;;;;5072617;28;20048;-54
2022/01/18 04:44:05;;;;;;;4.50;2.53;;;25.40;95.40;;;;;;5073744;28;20040;-56
2022/01/18 04:49:18;;;;;;;5.43;2.22;;;25.40;95.40;;;;;;5072486;28;20075;-60
2022/01/18 04:51:46;;;;;;;5.40;2.40;;;25.30;95.40;;;;;;5072327;28;20111;-60
2022/01/18 04:54:29;;;;;;;4.88;2.00;;;25.30;95.40;;;;;;5072211;28;20033;-53
2022/01/18 04:59:24;;;;;;;3.30;1.98;;;25.30;95.50;;;;;;5073089;28;20079;-57
2022/01/18 05:02:00;;;;;;;3.90;2.10;;;25.30;95.50;;;;;;5072610;28;20055;-52
2022/01/18 05:04:28;;;;;;;4.07;2.17;;;25.30;95.50;;;;;;5072357;28;20039;-57
2022/01/18 05:07:00;;;;;;;5.78;2.42;;;25.20;95.60;;;;;;5072365;28;20025;-59
2022/01/18 05:09:27;;;;;;;3.00;1.95;;;25.20;95.50;;;;;;5070500;28;20025;-54
2022/01/18 05:12:05;;;;;;;5.55;2.38;;;25.20;95.60;;;;;;5070330;28;20027;-56
2022/01/18 05:14:35;;;;;;;5.13;2.40;;;25.20;95.50;;;;;;5071832;28;20394;-53
2022/01/18 05:19:55;;;;;;;5.20;1.80;;;25.20;95.60;;;;;;5071661;28;20017;-57
2022/01/18 05:25:08;;;;;;;2.85;1.92;;;25.20;95.60;;;;;;5072200;28;20174;-57
2022/01/18 05:27:35;;;;;;;5.05;2.28;;;25.20;95.60;;;;;;5070956;28;20032;-48
2022/01/18 05:30:03;;;;;;;6.32;2.30;;;25.10;95.50;;;;;;5071440;28;20025;-49
2022/01/18 05:32:31;;;;;;;3.40;1.85;;;25.10;95.60;;;;;;5070207;28;20020;-55
2022/01/18 05:34:58;;;;;;;3.75;1.90;;;25.10;95.50;;;;;;5071663;28;20432;-57
2022/01/18 05:37:26;;;;;;;3.10;1.80;;;25.10;95.80;;;;;;5071936;28;20032;-57
2022/01/18 05:39:53;;;;;;;4.20;1.98;;;25.10;95.50;;;;;;5071004;28;20025;-61
2022/01/18 05:42:21;;;;;;;2.97;1.70;;;25.10;95.60;;;;;;5072615;28;20082;-56
2022/01/18 05:44:49;;;;;;;4.65;1.70;;;25.10;95.60;;;;;;5071995;28;20032;-57
2022/01/18 05:47:20;;;;;;;3.13;1.63;;;25.10;95.60;;;;;;5071509;28;20344;-58
2022/01/18 05:49:47;;;;;;;3.88;2.03;;;25.10;95.60;;;;;;5072135;28;20059;-62
2022/01/18 05:52:15;;;;;;;4.03;2.15;;;25.00;95.60;;;;;;5071639;28;20031;-60
2022/01/18 05:54:43;;;;;;;4.95;1.88;;;25.00;95.60;;;;;;5070715;28;20055;-59
2022/01/18 05:57:10;;;;;;;3.55;1.50;;;25.00;95.60;;;;;;5075107;28;20017;-54
2022/01/18 05:59:43;;;;;;;3.63;1.88;;;25.00;95.60;;;;;;5075134;28;20153;-55
2022/01/18 06:02:30;;;;;;;4.10;1.88;;;25.00;95.50;;;;;;5075411;28;20050;-59
2022/01/18 06:07:43;;;;;;;4.25;1.85;;;25.00;95.60;;;;;;5076821;28;20586;-54
2022/01/18 06:10:11;;;;;;;4.30;1.98;;;24.90;95.60;;;;;;5075319;28;20475;-55
2022/01/18 06:12:41;;;;;;;4.47;1.88;;;25.00;95.70;;;;;;5075501;28;20098;-57
2022/01/18 06:15:09;;;;;;;4.55;1.73;;;25.00;95.60;;;;;;5076060;28;20025;-58
2022/01/18 06:17:38;;;;;;;5.82;2.03;;;24.90;95.60;;;;;;5076458;28;20528;-55
2022/01/18 06:20:08;;;;;;;4.18;1.60;;;24.90;95.70;;;;;;5073927;28;20051;-58
2022/01/18 06:22:35;;;;;;;4.70;1.58;;;24.90;95.70;;;;;;5073500;28;20020;-51
2022/01/18 06:25:05;;;;;;;4.40;1.67;;;24.90;95.70;;;;;;5075400;28;20040;-59
2022/01/18 06:27:32;;;;;;;3.35;1.88;;;24.90;95.70;;;;;;5075238;28;20427;-56
2022/01/18 06:30:00;;;;;;;2.05;1.42;;;24.90;95.70;;;;;;5075291;28;20104;-56
2022/01/18 06:32:27;;;;;;;2.67;1.55;;;24.90;95.70;;;;;;5075841;28;20043;-56
2022/01/18 06:34:55;;;;;;;2.20;1.45;;;24.90;95.70;;;;;;5075435;28;20035;-56
2022/01/18 06:37:22;;;;;;;2.75;1.40;;;24.90;95.70;;;;;;5074991;28;20089;-60
2022/01/18 06:39:50;;;;;;;2.85;1.50;;;24.90;95.70;;;;;;5075048;28;20023;-63
2022/01/18 06:42:17;;;;;;;2.92;1.55;;;24.80;95.70;;;;;;5074762;28;20025;-60
2022/01/18 06:44:44;;;;;;;1.52;1.27;;;24.90;95.80;;;;;;5074342;28;20032;-57
2022/01/18 06:47:12;;;;;;;3.30;1.95;;;24.90;95.80;;;;;;5074777;28;20418;-60
2022/01/18 06:49:39;;;;;;;2.25;1.38;;;24.90;95.70;;;;;;5074625;28;20032;-58
2022/01/18 06:52:07;;;;;;;3.30;1.67;;;24.80;95.70;;;;;;5074839;28;20024;-60
2022/01/18 06:54:34;;;;;;;3.63;1.75;;;24.80;95.80;;;;;;5074848;28;20469;-60
2022/01/18 06:57:02;;;;;;;2.22;1.20;;;24.80;95.80;;;;;;5074815;28;20050;-59
2022/01/18 06:59:29;;;;;;;2.88;1.42;;;24.80;95.70;;;;;;5074986;28;20052;-56
2022/01/18 07:01:57;;;;;;;4.03;1.73;;;24.80;95.80;;;;;;5073381;28;20028;-59
2022/01/18 07:04:24;;;;;;;2.67;1.40;;;24.80;95.80;;;;;;5074465;28;20495;-60
2022/01/18 07:06:51;;;;;;;2.78;1.15;;;24.80;95.80;;;;;;5074407;28;20108;-59
2022/01/18 07:09:28;;;;;;;4.18;1.67;;;24.80;95.80;;;;;;5072807;28;20028;-60
2022/01/18 07:11:56;;;;;;;6.80;1.90;;;24.80;95.80;;;;;;5074131;28;20115;-61
2022/01/18 07:14:25;;;;;;;2.92;1.35;;;24.70;95.80;;;;;;5074346;28;20028;-56
2022/01/18 07:16:52;;;;;;;4.75;1.60;;;24.70;95.80;;;;;;5074869;28;20024;-53
2022/01/18 07:19:20;;;;;;;2.28;1.25;;;24.70;95.80;;;;;;5074544;28;20100;-58
2022/01/18 07:21:47;;;;;;;2.72;1.20;;;24.70;96.10;;;;;;5074510;28;20134;-60
2022/01/18 07:24:35;;;;;;;4.03;1.67;;;24.70;95.90;;;;;;5074286;28;20033;-59
2022/01/18 07:27:02;;;;;;;2.25;1.50;;;24.70;95.80;;;;;;5073846;28;20394;-57
2022/01/18 07:29:30;;;;;;;2.60;1.40;;;24.70;95.90;;;;;;5074172;28;20059;-54
2022/01/18 07:31:57;;;;;;;1.83;1.27;;;24.70;95.90;;;;;;5073594;28;20340;-50
2022/01/18 07:34:26;;;;;;;3.47;1.52;;;24.60;95.80;;;;;;5074077;28;20119;-60
2022/01/18 07:36:53;;;;;;;3.65;1.75;;;24.70;95.90;;;;;;5072670;28;20367;-59
2022/01/18 07:39:20;;;;;;;4.05;1.70;;;24.70;95.90;;;;;;5072956;28;20024;-59
2022/01/18 07:41:48;;;;;;;4.70;1.80;;;24.60;95.90;;;;;;5073946;28;20039;-54
2022/01/18 07:44:15;;;;;;;3.38;1.30;;;24.60;95.90;;;;;;5073789;28;20441;-60
2022/01/18 07:46:43;;;;;;;2.72;1.38;;;24.60;95.90;;;;;;5072756;28;20048;-52
2022/01/18 07:49:10;;;;;;;1.83;1.35;;;24.60;95.90;;;;;;5073165;28;20394;-59
2022/01/18 07:51:38;;;;;;;4.50;1.95;;;24.60;95.90;;;;;;5074122;28;20021;-62
2022/01/18 07:54:05;;;;;;;3.97;1.98;;;24.60;95.90;;;;;;5073142;28;20071;-55
2022/01/18 07:56:32;;;;;;;3.08;2.05;;;24.60;95.90;;;;;;5074214;28;20380;-62
2022/01/18 07:59:00;;;;;;;6.07;1.60;;;24.50;95.90;;;;;;5073603;28;20337;-59
2022/01/18 08:01:27;;;;;;;3.78;1.63;;;24.60;96.00;;;;;;5073788;28;20356;-62
2022/01/18 08:03:55;;;;;;;5.63;1.77;;;24.50;95.90;;;;;;5071468;28;20483;-58
2022/01/18 08:06:22;;;;;;;4.43;1.90;;;24.50;95.90;;;;;;5073198;28;20532;-61
2022/01/18 08:08:49;;;;;;;4.82;2.15;;;24.50;95.90;;;;;;5072430;28;20025;-56
2022/01/18 08:11:17;;;;;;;3.47;2.08;;;24.50;95.90;;;;;;5073437;28;20524;-57
2022/01/18 08:13:48;;;;;;;3.50;1.83;;;24.50;96.00;;;;;;5073354;28;20383;-58
2022/01/18 08:16:44;;;;;;;4.57;1.85;;;24.50;95.90;;;;;;5073471;28;20029;-63
2022/01/18 08:19:09;;;;;;;5.28;2.00;;;24.50;96.00;;;;;;5072571;28;20037;-61
2022/01/18 08:21:36;;;;;;;3.53;2.03;;;24.50;96.00;;;;;;5073349;28;20075;-55
2022/01/18 08:24:04;;;;;;;4.20;2.20;;;24.50;96.00;;;;;;5073271;28;20044;-58
2022/01/18 08:26:31;;;;;;;3.90;1.95;;;24.50;96.10;;;;;;5073596;28;20379;-61
2022/01/18 08:28:59;;;;;;;4.93;2.67;;;24.50;96.00;;;;;;5073088;28;20034;-56
2022/01/18 08:31:26;;;;;;;3.90;2.13;;;24.50;96.00;;;;;;5073444;28;20417;-58
2022/01/18 08:33:54;;;;;;;4.55;2.20;;;24.50;96.10;;;;;;5073201;28;20078;-65
2022/01/18 08:36:21;;;;;;;5.15;2.20;;;24.50;96.10;;;;;;5072891;28;20543;-61
2022/01/18 08:38:49;;;;;;;5.18;2.40;;;24.50;96.10;;;;;;5072756;28;20332;-60
2022/01/18 08:41:17;;;;;;;5.68;2.67;;;24.50;96.10;;;;;;5073073;28;20024;-63
2022/01/18 08:43:44;;;;;;;5.68;2.58;;;24.50;96.10;;;;;;5072656;28;20036;-62
2022/01/18 08:46:11;;;;;;;7.65;2.88;;;24.50;96.10;;;;;;5072518;28;20025;-59
2022/01/18 08:48:39;;;;;;;5.57;2.60;;;24.40;96.00;;;;;;5072542;28;20475;-54
2022/01/18 08:51:07;;;;;;;5.57;2.90;;;24.40;96.10;;;;;;5071506;28;20025;-56
2022/01/18 08:53:35;;;;;;;5.45;2.50;;;24.40;96.10;;;;;;5072774;28;20035;-52
2022/01/18 08:56:03;;;;;;;6.22;3.08;;;24.40;96.10;;;;;;5072242;28;20392;-56
2022/01/18 08:58:32;;;;;;;5.95;3.00;;;24.40;96.10;;;;;;5072684;28;20043;-60
2022/01/18 09:00:59;;;;;;;4.88;2.70;;;24.40;96.10;;;;;;5072977;28;20470;-54
2022/01/18 09:03:27;;;;;;;5.93;2.58;;;24.40;96.10;;;;;;5074816;28;20039;-61
2022/01/18 09:05:56;;;;;;;5.15;2.80;;;24.40;96.10;;;;;;5074019;28;20035;-60
2022/01/18 09:08:23;;;;;;;8.40;3.85;;;24.40;96.10;;;;;;5073207;28;20100;-64
2022/01/18 09:10:52;;;;;;;7.22;2.78;;;24.30;96.10;;;;;;5072792;28;20074;-62
2022/01/18 09:13:22;;;;;;;5.40;2.58;;;24.30;96.10;;;;;;5072489;28;20024;-61
2022/01/18 09:15:50;;;;;;;6.15;3.20;;;24.40;96.20;;;;;;5071591;28;20025;-61
2022/01/18 09:18:18;;;;;;;8.18;3.33;;;24.40;96.20;;;;;;5073187;28;20067;-63
2022/01/18 09:20:45;;;;;;;5.72;3.42;;;24.40;96.20;;;;;;5072636;28;20047;-63
2022/01/18 09:23:14;;;;;;;5.95;3.35;;;24.30;96.10;;;;;;5072775;28;20031;-59
2022/01/18 09:25:42;;;;;;;7.25;3.10;;;24.30;96.20;;;;;;5072822;28;20395;-57
2022/01/18 09:28:10;;;;;;;6.65;3.22;;;24.30;96.20;;;;;;5072528;28;20021;-61
2022/01/18 09:30:38;;;;;;;6.90;3.50;;;24.30;96.20;;;;;;5072391;28;20084;-60
2022/01/18 09:33:06;;;;;;;8.98;4.10;;;24.30;96.20;;;;;;5072559;28;20096;-57
2022/01/18 09:35:36;;;;;;;7.03;3.50;;;24.30;96.20;;;;;;5072741;28;20032;-60
2022/01/18 09:38:05;;;;;;;6.45;3.40;;;24.30;96.20;;;;;;5071491;28;20063;-64
2022/01/18 09:40:37;;;;;;;8.25;3.85;;;24.30;96.30;;;;;;5071273;28;20036;-60
2022/01/18 09:43:10;;;;;;;8.57;3.58;;;24.20;96.20;;;;;;5072436;28;20021;-59
2022/01/18 09:45:39;;;;;;;5.43;3.40;;;24.30;96.30;;;;;;5072348;28;20036;-57
2022/01/18 09:48:07;;;;;;;10.00;4.05;;;24.30;96.50;;;;;;5072299;28;20021;-58
2022/01/18 09:50:36;;;;;;;7.57;3.47;;;24.30;96.30;;;;;;5072313;28;20032;-57
2022/01/18 09:53:07;;;;;;;8.77;3.92;;;24.30;96.30;;;;;;5072633;28;20108;-64
2022/01/18 09:55:35;;;;;;;9.05;4.13;;;24.20;96.50;;;;;;5072406;28;20048;-64
2022/01/18 09:58:07;;;;;;;9.10;4.35;;;24.20;96.30;;;;;;5072147;28;20024;-61
2022/01/18 10:00:38;;;;;;;11.48;5.15;;;24.20;96.30;;;;;;5072399;28;20028;-61
2022/01/18 10:03:11;;;;;;;8.60;4.03;;;24.20;96.30;;;;;;5072345;28;20050;-60
2022/01/18 10:05:39;;;;;;;10.23;4.47;;;24.20;96.30;;;;;;5072404;28;20039;-61
2022/01/18 10:08:15;;;;;;;10.60;4.20;;;24.20;96.30;;;;;;5071778;28;20030;-59
2022/01/18 10:10:44;;;;;;;9.20;4.10;;;24.20;96.30;;;;;;5072336;28;20143;-63
2022/01/18 10:13:24;;;;;;;7.63;4.07;;;24.20;96.30;;;;;;5072227;28;20492;-59
2022/01/18 10:16:14;;;;;;;9.85;4.63;;;24.20;96.30;;;;;;5070996;28;20355;-53
2022/01/18 10:18:48;;;;;;;9.73;4.18;;;24.10;96.30;;;;;;5072442;28;20387;-57
2022/01/18 10:21:39;;;;;;;10.48;4.93;;;24.20;96.30;;;;;;5072272;28;20051;-64
2022/01/18 10:24:24;;;;;;;10.40;4.75;;;24.10;96.30;;;;;;5071361;28;20120;-61
2022/01/18 10:26:54;;;;;;;10.60;4.40;;;24.10;96.30;;;;;;5072007;28;20448;-62
2022/01/18 10:29:28;;;;;;;10.05;4.32;;;24.10;96.30;;;;;;5071913;28;20021;-63
2022/01/18 10:31:58;;;;;;;11.95;4.63;;;24.10;96.30;;;;;;5071525;28;20025;-61
2022/01/18 10:37:17;;;;;;;9.05;4.20;;;24.10;96.30;;;;;;5072167;28;20025;-64
2022/01/18 10:39:54;;;;;;;10.85;4.70;;;24.10;96.30;;;;;;5072177;28;20115;-65
2022/01/18 10:42:51;;;;;;;8.63;4.85;;;24.10;96.30;;;;;;5071847;28;20050;-60
2022/01/18 10:45:31;;;;;;;10.65;4.75;;;24.10;96.40;;;;;;5075732;28;20033;-59
2022/01/18 10:48:04;;;;;;;9.27;5.07;;;24.10;96.30;;;;;;5075623;28;20091;-55
2022/01/18 10:50:38;;;;;;;10.40;4.57;;;24.00;96.40;;;;;;5075693;28;20108;-60
2022/01/18 10:53:15;;;;;;;10.45;4.97;;;24.00;96.70;;;;;;5075450;28;20020;-56
2022/01/18 10:55:45;;;;;;;11.38;4.88;;;24.00;96.40;;;;;;5075402;28;20499;-62
2022/01/18 10:58:15;;;;;;;8.45;4.75;;;24.00;96.40;;;;;;5075099;28;20067;-61
2022/01/18 11:00:43;;;;;;;10.23;5.07;;;24.00;96.40;;;;;;5075602;28;20056;-59
2022/01/18 11:03:10;;;;;;;9.32;4.85;;;24.00;96.50;;;;;;5075633;28;20021;-60
2022/01/18 11:05:43;;;;;;;8.70;4.80;;;24.00;96.40;;;;;;5075446;28;20094;-62
2022/01/18 11:08:15;;;;;;;11.27;5.45;;;23.90;96.40;;;;;;5075261;28;20498;-68
2022/01/18 11:10:48;;;;;;;10.82;5.15;;;23.90;96.50;;;;;;5076096;28;20567;-62
2022/01/18 11:13:23;;;;;;;10.15;4.75;;;23.90;96.50;;;;;;5073960;28;20037;-58
2022/01/18 11:16:01;;;;;;;8.98;4.63;;;23.90;96.50;;;;;;5075481;28;20029;-64
2022/01/18 11:18:35;;;;;;;9.52;5.18;;;23.90;96.50;;;;;;5074285;28;20032;-63
2022/01/18 11:21:05;;;;;;;11.98;4.40;;;23.90;96.50;;;;;;5075369;28;20021;-60
2022/01/18 11:23:35;;;;;;;10.52;4.80;;;23.90;96.50;;;;;;5075320;28;20040;-64
2022/01/18 11:26:03;;;;;;;10.68;5.60;;;23.90;96.50;;;;;;5074981;28;20099;-58
2022/01/18 11:28:34;;;;;;;10.00;5.65;;;23.90;96.50;;;;;;5074641;28;20052;-61
2022/01/18 11:31:01;;;;;;;9.43;4.93;;;23.90;96.50;;;;;;5074801;28;20060;-64
2022/01/18 11:33:35;;;;;;;9.82;5.30;;;23.90;96.50;;;;;;5074874;28;20036;-62
2022/01/18 11:36:07;;;;;;;9.52;4.97;;;23.90;96.50;;;;;;5074992;28;20028;-62
2022/01/18 11:38:56;;;;;;;13.52;5.78;;;23.90;96.60;;;;;;5074792;28;20031;-58
2022/01/18 11:41:25;;;;;;;9.60;5.07;;;23.90;96.50;;;;;;5075226;28;20024;-60
2022/01/18 11:43:55;;;;;;;10.18;4.90;;;23.90;96.50;;;;;;5074902;28;20025;-61
2022/01/18 11:46:40;;;;;;;13.18;5.55;;;23.80;96.50;;;;;;5077556;28;20029;-61
2022/01/18 11:49:29;;;;;;;10.27;4.43;;;23.80;96.50;;;;;;5076252;28;20102;-61
2022/01/18 11:52:03;;;;;;;10.85;4.70;;;23.90;96.50;;;;;;5073110;28;20035;-60
2022/01/18 11:54:43;;;;;;;9.95;5.18;;;23.80;96.40;;;;;;5073876;28;20071;-61
2022/01/18 11:57:23;;;;;;;12.82;5.20;;;23.80;96.50;;;;;;5072649;28;20024;-57
2022/01/18 12:00:33;;;;;;;11.65;5.32;;;23.80;96.40;;;;;;5073761;28;20490;-56
2022/01/18 12:03:18;;;;;;;14.00;4.97;;;23.80;96.40;;;;;;5073338;28;20139;-62
2022/01/18 12:05:46;;;;;;;8.75;4.57;;;23.80;96.40;;;;;;5073536;28;20517;-59
2022/01/18 12:08:33;;;;;;;10.55;4.65;;;23.80;96.40;;;;;;5073114;28;20112;-62
2022/01/18 12:11:06;;;;;;;10.88;4.72;;;23.80;96.40;;;;;;5073843;28;20108;-61
2022/01/18 12:13:36;;;;;;;11.60;5.20;;;23.80;96.40;;;;;;5073920;28;20042;-59
2022/01/18 12:16:18;;;;;;;8.70;4.53;;;23.80;96.40;;;;;;5072171;28;20474;-59
2022/01/18 12:19:00;;;;;;;13.52;4.70;;;23.80;96.40;;;;;;5073536;28;20074;-60
2022/01/18 12:21:29;;;;;;;;;;;23.80;96.40;;;;;;5074093;28;20328;-61
2022/01/18 12:24:17;;;;;;;12.73;5.20;;;23.80;96.40;;;;;;5071829;28;19912;-63
2022/01/18 12:26:49;;;;;;;10.40;4.80;;;23.80;96.40;;;;;;5073443;28;20020;-61
2022/01/18 12:34:29;;;;;;;12.07;5.07;;;23.80;96.40;;;;;;5073436;28;20024;-61
2022/01/18 12:45:24;;;;;;;10.02;4.45;;;23.70;96.30;;;;;;5072950;28;20124;-59
2022/01/18 12:47:54;;;;;;;8.63;4.63;;;23.80;96.30;;;;;;5072629;28;20108;-57
2022/01/18 12:50:26;;;;;;;10.60;5.22;;;23.70;96.30;;;;;;5073296;28;20024;-55
2022/01/18 12:52:59;;;;;;;8.13;4.60;;;23.80;96.30;;;;;;5073258;28;20056;-60
2022/01/18 12:55:50;;;;;;;9.05;4.55;;;23.80;96.30;;;;;;5072580;28;20048;-60
2022/01/18 12:58:21;;;;;;;10.65;4.68;;;23.70;96.20;;;;;;5072279;28;20032;-61
2022/01/18 13:00:51;;;;;;;11.07;5.13;;;23.80;96.30;;;;;;5072907;28;20592;-63
2022/01/18 13:03:32;;;;;;;14.93;4.85;;;23.70;96.30;;;;;;5072543;28;20044;-58
2022/01/18 13:06:03;;;;;;;10.18;4.85;;;23.80;96.20;;;;;;5072212;28;20120;-60
2022/01/18 13:08:43;;;;;;;8.43;4.38;;;23.70;96.20;;;;;;5072657;28;20429;-61
2022/01/18 13:11:12;;;;;;;10.68;5.05;;;23.70;96.20;;;;;;5072388;28;20044;-62
2022/01/18 13:13:40;;;;;;;10.85;5.07;;;23.70;96.20;;;;;;5072412;28;20475;-60
2022/01/18 13:27:10;;;;;;;9.95;5.18;;;23.70;96.20;;;;;;5072258;28;20021;-58
2022/01/18 13:29:38;;;;;;;9.65;4.00;;;23.70;96.20;;;;;;5072222;28;20095;-61
2022/01/18 13:32:18;;;;;;;9.70;4.65;;;23.70;96.20;;;;;;5071827;28;20020;-62
2022/01/18 13:34:51;;;;;;;10.18;4.60;;;23.70;96.20;;;;;;5070895;28;20024;-62
2022/01/18 13:37:22;;;;;;;11.68;5.05;;;23.70;96.20;;;;;;5072169;28;20013;-62
2022/01/18 13:40:14;;;;;;;7.13;4.10;;;23.70;96.20;;;;;;5071926;28;20028;-60
2022/01/18 13:42:49;;;;;;;7.97;3.72;;;23.70;96.20;;;;;;5071662;28;20029;-61
2022/01/18 13:45:19;;;;;;;13.35;4.50;;;23.70;96.20;;;;;;5071956;28;20044;-57
2022/01/18 13:47:50;;;;;;;11.00;4.63;;;23.70;96.40;;;;;;5071850;28;20020;-60
2022/01/18 13:50:54;;;;;;;10.43;4.60;;;23.70;96.10;;;;;;5072001;28;20059;-54
2022/01/18 13:53:33;;;;;;;10.38;4.35;;;23.70;96.10;;;;;;5072042;28;20020;-59
2022/01/18 13:56:18;;;;;;;12.48;4.53;;;23.70;96.10;;;;;;5072045;28;20141;-62
2022/01/18 13:58:50;;;;;;;9.30;3.78;;;23.70;96.10;;;;;;5072540;28;20017;-54
2022/01/18 14:01:20;;;;;;;;;;;23.70;96.10;;;;;;5072840;28;20095;-55
2022/01/18 14:03:52;;;;;;;10.30;4.70;;;23.70;96.10;;;;;;5072025;28;19962;-62
2022/01/18 14:06:21;;;;;;;7.13;3.92;;;23.70;96.10;;;;;;5071718;28;20465;-60
2022/01/18 14:08:53;;;;;;;9.85;4.18;;;23.60;96.00;;;;;;5071718;28;20420;-60
2022/01/18 14:11:34;;;;;;;11.40;4.70;;;23.60;96.00;;;;;;5071561;28;20028;-60
2022/01/18 14:14:24;;;;;;;13.38;4.85;;;23.70;96.10;;;;;;5071691;28;20024;-57
2022/01/18 14:16:53;;;;;;;10.18;3.83;;;23.70;96.10;;;;;;5072137;28;20123;-62
2022/01/18 14:19:34;;;;;;;12.38;4.40;;;23.70;96.00;;;;;;5075397;28;20532;-64
2022/01/18 14:22:11;;;;;;;9.87;5.03;;;23.60;96.00;;;;;;5076066;28;20066;-59
2022/01/18 14:24:47;;;;;;;10.10;3.70;;;23.70;96.00;;;;;;5074876;28;20039;-61
2022/01/18 14:27:26;;;;;;;11.10;4.40;;;23.60;96.00;;;;;;5075745;28;20032;-56
2022/01/18 14:30:07;;;;;;;10.38;4.50;;;23.60;96.00;;;;;;5075690;28;20071;-59
2022/01/18 14:32:40;;;;;;;9.70;4.13;;;23.60;96.00;;;;;;5074244;28;20059;-60
2022/01/18 14:35:21;;;;;;;8.43;3.92;;;23.70;96.00;;;;;;5074960;28;20079;-59
2022/01/18 14:37:59;;;;;;;8.57;3.58;;;23.60;95.90;;;;;;5075525;28;20103;-60
2022/01/18 14:40:34;;;;;;;10.00;4.15;;;23.60;95.90;;;;;;5075047;28;20038;-61
2022/01/18 14:43:11;;;;;;;10.85;4.35;;;23.60;95.90;;;;;;5075049;28;20490;-62
2022/01/18 14:46:02;;;;;;;9.52;3.90;;;23.60;95.90;;;;;;5074962;28;20037;-61
2022/01/18 14:48:34;;;;;;;8.65;4.32;;;23.60;95.90;;;;;;5075456;28;20029;-60